PWSweather.com
Personal Weather Stations
Station Observations
CANDIOTINO
Barrio Candioti Norte, Santa FeAR 3000

Barrio Candioti NorteSanta FeAR 3000

Lat: -31.632778, Lon: -60.695556

Elevation: 69

Station Type: WH-1081

http://www.eltiempoensantafe.com.ar

High Low Average
Temperature 59.5°F15.3°C 44.1°F6.7°C 50.8°F10.4°C
Dew Point 47.9°F8.8°C 27.2°F-2.7°C 38.1°F3.4°C
Winds 17.4 mph 28.0 kmh 3.1 mph 5.0 kmh 9.0 mph S14.5 kmh S
Wind Gusts 38.7 mph62.3 kmh 7.6 mph12.2 kmh 17.0 mph27.4 kmh
Humidity 93% 32% 65%
Pressure 30.43 in1030.5 mb 30.09 in1019.0 mb -
Precipitation 0.66 in16.8 mm - -
Hour Temp Dew Point Humidity Winds Wind Gusts Pressure Precip Precip Rate Daily Precip Total
12:00 AM 51.4°F10.8°C 47.4°F8.6°C 86% 7.6 mph SSE12.2 kmh SSE 15.9 mph25.6 kmh 30.09 in1019.0 mb 0.13 in3.3 mm 0.00 in0.0 mm 0.13 in3.3 mm
12:15 AM 51.6°F10.9°C 47.9°F8.8°C 87% 9.2 mph S14.8 kmh S 17.4 mph28.0 kmh 30.11 in1019.6 mb 0.01 in0.3 mm 0.00 in0.0 mm 0.13 in3.3 mm
12:30 AM 51.6°F10.9°C 47.6°F8.7°C 86% 7.6 mph S12.2 kmh S 18.3 mph29.5 kmh 30.13 in1020.3 mb 0.00 in0.0 mm 0.00 in0.0 mm 0.13 in3.3 mm
12:45 AM 50.7°F10.4°C 47.0°F8.3°C 87% 13.6 mph SSE21.9 kmh SSE 18.3 mph29.5 kmh 30.10 in1019.3 mb 0.12 in3.0 mm 0.48 in12.2 mm 0.12 in3.0 mm
01:00 AM 50.7°F10.4°C 47.6°F8.7°C 89% 7.6 mph S12.2 kmh S 24.4 mph39.3 kmh 30.09 in1019.0 mb 0.13 in3.3 mm 0.01 in0.3 mm 0.13 in3.3 mm
01:15 AM 50.5°F10.3°C 47.7°F8.7°C 90% 11.4 mph S18.3 kmh S 20.6 mph33.2 kmh 30.12 in1020.0 mb 0.14 in3.6 mm 0.04 in1.0 mm 0.14 in3.6 mm
01:30 AM 50.4°F10.2°C 47.5°F8.6°C 90% 12.1 mph S19.5 kmh S 16.8 mph27.0 kmh 30.12 in1020.0 mb 0.14 in3.6 mm 0.00 in0.0 mm 0.14 in3.6 mm
01:45 AM 50.0°F10.0°C 46.9°F8.3°C 89% 9.2 mph S14.8 kmh S 23.5 mph37.8 kmh 30.11 in1019.6 mb 0.06 in1.5 mm 0.00 in0.0 mm 0.18 in4.6 mm
02:00 AM 49.6°F9.8°C 47.1°F8.4°C 91% 10.7 mph S17.2 kmh S 14.5 mph23.3 kmh 30.17 in1021.7 mb 0.07 in1.8 mm 0.01 in0.3 mm 0.20 in5.1 mm
02:15 AM 49.5°F9.7°C 46.9°F8.3°C 91% 9.2 mph S14.8 kmh S 18.3 mph29.5 kmh 30.12 in1020.0 mb 0.08 in2.0 mm 0.04 in1.0 mm 0.22 in5.6 mm
02:30 AM 48.9°F9.4°C 46.4°F8.0°C 91% 13.6 mph SSE21.9 kmh SSE 23.5 mph37.8 kmh 30.13 in1020.3 mb 0.09 in2.3 mm 0.04 in1.0 mm 0.24 in6.1 mm
02:45 AM 48.7°F9.3°C 45.9°F7.7°C 90% 9.2 mph SSE14.8 kmh SSE 21.3 mph34.3 kmh 30.13 in1020.3 mb 0.08 in2.0 mm 0.00 in0.0 mm 0.26 in6.6 mm
03:00 AM 48.6°F9.2°C 46.1°F7.8°C 91% 13.0 mph S20.9 kmh S 31.1 mph50.1 kmh 30.15 in1021.0 mb 0.13 in3.3 mm 0.07 in1.8 mm 0.33 in8.4 mm
03:15 AM 48.0°F8.9°C 45.8°F7.7°C 92% 11.4 mph S18.3 kmh S 22.8 mph36.7 kmh 30.15 in1021.0 mb 0.17 in4.3 mm 0.16 in4.1 mm 0.39 in9.9 mm
03:30 AM 48.0°F8.9°C 45.8°F7.7°C 92% 6.9 mph S11.1 kmh S 22.1 mph35.6 kmh 30.15 in1021.0 mb 0.20 in5.1 mm 0.12 in3.0 mm 0.44 in11.2 mm
03:45 AM 47.8°F8.8°C 45.9°F7.7°C 93% 9.2 mph SSE14.8 kmh SSE 19.7 mph31.7 kmh 30.16 in1021.3 mb 0.25 in6.4 mm 0.20 in5.1 mm 0.51 in13.0 mm
04:00 AM 48.2°F9.0°C 46.3°F7.9°C 93% 9.2 mph SSE14.8 kmh SSE 18.3 mph29.5 kmh 30.16 in1021.3 mb 0.21 in5.3 mm 0.00 in0.0 mm 0.54 in13.7 mm
04:15 AM 48.2°F9.0°C 46.3°F7.9°C 93% 10.7 mph S17.2 kmh S 17.4 mph28.0 kmh 30.18 in1022.0 mb 0.17 in4.3 mm 0.00 in0.0 mm 0.56 in14.2 mm
04:30 AM 48.0°F8.9°C 46.1°F7.8°C 93% 12.1 mph S19.5 kmh S 22.8 mph36.7 kmh 30.17 in1021.7 mb 0.12 in3.0 mm 0.00 in0.0 mm 0.56 in14.2 mm
04:45 AM 47.7°F8.7°C 44.9°F7.2°C 90% 11.4 mph S18.3 kmh S 20.6 mph33.2 kmh 30.16 in1021.3 mb 0.05 in1.3 mm 0.00 in0.0 mm 0.56 in14.2 mm
05:00 AM 47.3°F8.5°C 43.9°F6.6°C 88% 9.2 mph S14.8 kmh S 24.4 mph39.3 kmh 30.16 in1021.3 mb 0.01 in0.3 mm 0.00 in0.0 mm 0.56 in14.2 mm
05:15 AM 46.9°F8.3°C 43.3°F6.3°C 87% 17.4 mph SSE28.0 kmh SSE 28.2 mph45.4 kmh 30.16 in1021.3 mb 0.00 in0.0 mm 0.00 in0.0 mm 0.56 in14.2 mm
05:30 AM 46.4°F8.0°C 42.4°F5.8°C 86% 12.1 mph S19.5 kmh S 23.5 mph37.8 kmh 30.23 in1023.7 mb 0.01 in0.3 mm 0.04 in1.0 mm 0.57 in14.5 mm
05:45 AM 46.4°F8.0°C 41.5°F5.3°C 83% 6.0 mph SSE9.7 kmh SSE 21.3 mph34.3 kmh 30.28 in1025.4 mb 0.01 in0.3 mm 0.00 in0.0 mm 0.57 in14.5 mm
06:00 AM 45.7°F7.6°C 40.8°F4.9°C 83% 8.3 mph S13.4 kmh S 21.3 mph34.3 kmh 30.30 in1026.1 mb 0.02 in0.5 mm 0.01 in0.3 mm 0.58 in14.7 mm
06:15 AM 45.5°F7.5°C 41.0°F5.0°C 84% 8.3 mph SE13.4 kmh SE 16.8 mph27.0 kmh 30.27 in1025.1 mb 0.02 in0.5 mm 0.00 in0.0 mm 0.58 in14.7 mm
06:30 AM 45.3°F7.4°C 41.7°F5.4°C 87% 6.9 mph SSE11.1 kmh SSE 13.6 mph21.9 kmh 30.29 in1025.7 mb 0.02 in0.5 mm 0.00 in0.0 mm 0.59 in15.0 mm
06:45 AM 45.1°F7.3°C 41.5°F5.3°C 87% 13.6 mph SSE21.9 kmh SSE 26.6 mph42.8 kmh 30.26 in1024.7 mb 0.04 in1.0 mm 0.08 in2.0 mm 0.60 in15.2 mm
07:00 AM 44.4°F6.9°C 39.0°F3.9°C 81% 16.8 mph SE27.0 kmh SE 38.7 mph62.3 kmh 30.25 in1024.4 mb 0.05 in1.3 mm 0.01 in0.3 mm 0.63 in16.0 mm
07:15 AM 44.1°F6.7°C 39.2°F4.0°C 83% 9.8 mph S15.8 kmh S 19.7 mph31.7 kmh 30.25 in1024.4 mb 0.07 in1.8 mm 0.08 in2.0 mm 0.65 in16.5 mm
07:30 AM 44.4°F6.9°C 40.8°F4.9°C 87% 9.8 mph SE15.8 kmh SE 15.9 mph25.6 kmh 30.24 in1024.0 mb 0.06 in1.5 mm 0.00 in0.0 mm 0.65 in16.5 mm
07:45 AM 44.6°F7.0°C 41.3°F5.2°C 88% 4.5 mph SSE7.2 kmh SSE 14.5 mph23.3 kmh 30.27 in1025.1 mb 0.05 in1.3 mm 0.00 in0.0 mm 0.65 in16.5 mm
08:00 AM 44.6°F7.0°C 41.6°F5.3°C 89% 4.5 mph SE7.2 kmh SE 9.8 mph15.8 kmh 30.30 in1026.1 mb 0.02 in0.5 mm 0.00 in0.0 mm 0.65 in16.5 mm
08:15 AM 44.8°F7.1°C 42.0°F5.6°C 90% 3.8 mph S6.1 kmh S 9.2 mph14.8 kmh 30.29 in1025.7 mb 0.00 in0.0 mm 0.00 in0.0 mm 0.65 in16.5 mm
08:30 AM 45.3°F7.4°C 41.1°F5.1°C 85% 10.7 mph SSE17.2 kmh SSE 19.7 mph31.7 kmh 30.28 in1025.4 mb 0.01 in0.3 mm 0.04 in1.0 mm 0.66 in16.8 mm
08:45 AM 45.9°F7.7°C 40.4°F4.7°C 81% 8.3 mph S13.4 kmh S 16.8 mph27.0 kmh 30.29 in1025.7 mb 0.01 in0.3 mm 0.00 in0.0 mm 0.66 in16.8 mm
09:00 AM 46.0°F7.8°C 40.2°F4.6°C 80% 8.3 mph S13.4 kmh S 16.8 mph27.0 kmh 30.30 in1026.1 mb 0.01 in0.3 mm 0.00 in0.0 mm 0.66 in16.8 mm
09:15 AM 46.2°F7.9°C 39.7°F4.3°C 78% 9.8 mph SSE15.8 kmh SSE 13.6 mph21.9 kmh 30.31 in1026.4 mb 0.01 in0.3 mm 0.00 in0.0 mm 0.66 in16.8 mm
09:30 AM 46.9°F8.3°C 39.4°F4.1°C 75% 9.2 mph S14.8 kmh S 19.0 mph30.6 kmh 30.31 in1026.4 mb 0.00 in0.0 mm 0.00 in0.0 mm 0.66 in16.8 mm
09:45 AM 47.1°F8.4°C 39.6°F4.2°C 75% 5.4 mph SSE8.7 kmh SSE 15.9 mph25.6 kmh 30.32 in1026.8 mb 0.00 in0.0 mm 0.00 in0.0 mm 0.66 in16.8 mm
10:00 AM 47.3°F8.5°C 40.5°F4.7°C 77% 7.6 mph SE12.2 kmh SE 11.4 mph18.3 kmh 30.33 in1027.1 mb 0.00 in0.0 mm 0.00 in0.0 mm 0.66 in16.8 mm
10:15 AM 47.7°F8.7°C 41.8°F5.4°C 80% 3.1 mph S5.0 kmh S 8.3 mph13.4 kmh 30.33 in1027.1 mb 0.00 in0.0 mm 0.00 in0.0 mm 0.66 in16.8 mm
10:30 AM 48.2°F9.0°C 42.6°F5.9°C 81% 3.1 mph S5.0 kmh S 7.6 mph12.2 kmh 30.33 in1027.1 mb 0.00 in0.0 mm 0.00 in0.0 mm 0.66 in16.8 mm
10:45 AM 48.9°F9.4°C 42.0°F5.6°C 77% 3.1 mph S5.0 kmh S 10.7 mph17.2 kmh 30.32 in1026.8 mb 0.00 in0.0 mm 0.00 in0.0 mm 0.66 in16.8 mm
11:00 AM 49.6°F9.8°C 42.4°F5.8°C 76% 5.4 mph SSW8.7 kmh SSW 9.2 mph14.8 kmh 30.34 in1027.4 mb 0.00 in0.0 mm 0.00 in0.0 mm 0.66 in16.8 mm
11:15 AM 49.6°F9.8°C 42.0°F5.6°C 75% 7.6 mph S12.2 kmh S 10.7 mph17.2 kmh 30.35 in1027.8 mb 0.00 in0.0 mm 0.00 in0.0 mm 0.66 in16.8 mm
11:30 AM 50.9°F10.5°C 42.9°F6.1°C 74% 7.6 mph S12.2 kmh S 12.1 mph19.5 kmh 30.35 in1027.8 mb 0.00 in0.0 mm 0.00 in0.0 mm 0.66 in16.8 mm
11:45 AM 51.1°F10.6°C 42.7°F5.9°C 73% 6.9 mph S11.1 kmh S 15.2 mph24.5 kmh 30.34 in1027.4 mb 0.00 in0.0 mm 0.00 in0.0 mm 0.66 in16.8 mm
12:00 PM 53.2°F11.8°C 43.3°F6.3°C 69% 5.4 mph SSW8.7 kmh SSW 13.0 mph20.9 kmh 30.35 in1027.8 mb 0.00 in0.0 mm 0.00 in0.0 mm 0.66 in16.8 mm
12:15 PM 53.6°F12.0°C 41.7°F5.4°C 64% 7.6 mph S12.2 kmh S 12.1 mph19.5 kmh 30.34 in1027.4 mb 0.00 in0.0 mm 0.00 in0.0 mm 0.66 in16.8 mm
12:30 PM 53.4°F11.9°C 42.0°F5.6°C 65% 5.4 mph S8.7 kmh S 11.4 mph18.3 kmh 30.34 in1027.4 mb 0.00 in0.0 mm 0.00 in0.0 mm 0.66 in16.8 mm
12:45 PM 54.9°F12.7°C 39.9°F4.4°C 57% 11.4 mph S18.3 kmh S 16.8 mph27.0 kmh 30.34 in1027.4 mb 0.00 in0.0 mm 0.00 in0.0 mm 0.66 in16.8 mm
01:00 PM 55.9°F13.3°C 37.1°F2.8°C 49% 12.1 mph S19.5 kmh S 22.8 mph36.7 kmh 30.33 in1027.1 mb 0.00 in0.0 mm 0.00 in0.0 mm 0.66 in16.8 mm
01:15 PM 56.5°F13.6°C 37.0°F2.8°C 48% 14.5 mph SSE23.3 kmh SSE 22.1 mph35.6 kmh 30.33 in1027.1 mb 0.00 in0.0 mm 0.00 in0.0 mm 0.66 in16.8 mm
01:30 PM 57.4°F14.1°C 36.2°F2.3°C 45% 6.0 mph S9.7 kmh S 17.4 mph28.0 kmh 30.33 in1027.1 mb 0.00 in0.0 mm 0.00 in0.0 mm 0.66 in16.8 mm
01:45 PM 57.9°F14.4°C 36.2°F2.3°C 44% 9.8 mph S15.8 kmh S 19.7 mph31.7 kmh 30.32 in1026.8 mb 0.00 in0.0 mm 0.00 in0.0 mm 0.66 in16.8 mm
02:00 PM 57.9°F14.4°C 33.1°F0.6°C 39% 9.2 mph S14.8 kmh S 20.6 mph33.2 kmh 30.32 in1026.8 mb 0.00 in0.0 mm 0.00 in0.0 mm 0.66 in16.8 mm
02:15 PM 58.5°F14.7°C 36.1°F2.3°C 43% 8.3 mph SSE13.4 kmh SSE 19.7 mph31.7 kmh 30.32 in1026.8 mb 0.00 in0.0 mm 0.00 in0.0 mm 0.66 in16.8 mm
02:30 PM 58.5°F14.7°C 34.9°F1.6°C 41% 11.4 mph S18.3 kmh S 18.3 mph29.5 kmh 30.32 in1026.8 mb 0.00 in0.0 mm 0.00 in0.0 mm 0.66 in16.8 mm
02:45 PM 58.5°F14.7°C 33.0°F0.6°C 38% 11.4 mph S18.3 kmh S 25.1 mph40.4 kmh 30.32 in1026.8 mb 0.00 in0.0 mm 0.00 in0.0 mm 0.66 in16.8 mm
03:00 PM 59.4°F15.2°C 32.4°F0.2°C 36% 10.7 mph SSE17.2 kmh SSE 18.3 mph29.5 kmh 30.31 in1026.4 mb 0.00 in0.0 mm 0.00 in0.0 mm 0.66 in16.8 mm
03:15 PM 57.9°F14.4°C 33.1°F0.6°C 39% 11.4 mph S18.3 kmh S 20.6 mph33.2 kmh 30.31 in1026.4 mb 0.00 in0.0 mm 0.00 in0.0 mm 0.66 in16.8 mm
03:30 PM 57.7°F14.3°C 31.7°F-0.2°C 37% 13.0 mph S20.9 kmh S 19.7 mph31.7 kmh 30.30 in1026.1 mb 0.00 in0.0 mm 0.00 in0.0 mm 0.66 in16.8 mm
03:45 PM 57.2°F14.0°C 31.8°F-0.1°C 38% 8.3 mph S13.4 kmh S 19.7 mph31.7 kmh 30.31 in1026.4 mb 0.00 in0.0 mm 0.00 in0.0 mm 0.66 in16.8 mm
04:00 PM 56.8°F13.8°C 31.5°F-0.3°C 38% 11.4 mph S18.3 kmh S 18.3 mph29.5 kmh 30.31 in1026.4 mb 0.00 in0.0 mm 0.00 in0.0 mm 0.66 in16.8 mm
04:15 PM 58.1°F14.5°C 33.3°F0.7°C 39% 9.8 mph S15.8 kmh S 17.4 mph28.0 kmh 30.31 in1026.4 mb 0.00 in0.0 mm 0.00 in0.0 mm 0.66 in16.8 mm
04:30 PM 58.1°F14.5°C 32.0°F0.0°C 37% 9.8 mph S15.8 kmh S 18.3 mph29.5 kmh 30.31 in1026.4 mb 0.00 in0.0 mm 0.00 in0.0 mm 0.66 in16.8 mm
04:45 PM 58.5°F14.7°C 31.6°F-0.2°C 36% 13.0 mph S20.9 kmh S 20.6 mph33.2 kmh 30.31 in1026.4 mb 0.00 in0.0 mm 0.00 in0.0 mm 0.66 in16.8 mm
05:00 PM 59.5°F15.3°C 31.2°F-0.4°C 34% 11.4 mph S18.3 kmh S 15.9 mph25.6 kmh 30.32 in1026.8 mb 0.00 in0.0 mm 0.00 in0.0 mm 0.66 in16.8 mm
05:15 PM 58.5°F14.7°C 30.9°F-0.6°C 35% 10.7 mph S17.2 kmh S 18.3 mph29.5 kmh 30.32 in1026.8 mb 0.00 in0.0 mm 0.00 in0.0 mm 0.66 in16.8 mm
05:30 PM 59.2°F15.1°C 30.1°F-1.1°C 33% 15.9 mph S25.6 kmh S 22.8 mph36.7 kmh 30.32 in1026.8 mb 0.00 in0.0 mm 0.00 in0.0 mm 0.66 in16.8 mm
05:45 PM 57.9°F14.4°C 28.3°F-2.1°C 32% 11.4 mph S18.3 kmh S 18.3 mph29.5 kmh 30.32 in1026.8 mb 0.00 in0.0 mm 0.00 in0.0 mm 0.66 in16.8 mm
06:00 PM 57.4°F14.1°C 27.8°F-2.3°C 32% 9.8 mph S15.8 kmh S 18.3 mph29.5 kmh 30.33 in1027.1 mb 0.00 in0.0 mm 0.00 in0.0 mm 0.66 in16.8 mm
06:15 PM 56.8°F13.8°C 28.8°F-1.8°C 34% 13.0 mph S20.9 kmh S 14.5 mph23.3 kmh 30.34 in1027.4 mb 0.00 in0.0 mm 0.00 in0.0 mm 0.66 in16.8 mm
06:30 PM 55.0°F12.8°C 27.2°F-2.7°C 34% 8.3 mph S13.4 kmh S 15.9 mph25.6 kmh 30.34 in1027.4 mb 0.00 in0.0 mm 0.00 in0.0 mm 0.66 in16.8 mm
06:45 PM 53.6°F12.0°C 28.0°F-2.2°C 37% 7.6 mph S12.2 kmh S 15.2 mph24.5 kmh 30.34 in1027.4 mb 0.00 in0.0 mm 0.00 in0.0 mm 0.66 in16.8 mm
07:00 PM 53.1°F11.7°C 30.6°F-0.8°C 42% 6.0 mph S9.7 kmh S 12.1 mph19.5 kmh 30.36 in1028.1 mb 0.00 in0.0 mm 0.00 in0.0 mm 0.66 in16.8 mm
07:15 PM 52.5°F11.4°C 30.1°F-1.1°C 42% 8.3 mph S13.4 kmh S 11.4 mph18.3 kmh 30.36 in1028.1 mb 0.00 in0.0 mm 0.00 in0.0 mm 0.66 in16.8 mm
07:30 PM 52.0°F11.1°C 30.8°F-0.7°C 44% 6.0 mph S9.7 kmh S 12.1 mph19.5 kmh 30.37 in1028.4 mb 0.00 in0.0 mm 0.00 in0.0 mm 0.66 in16.8 mm
07:45 PM 51.6°F10.9°C 32.1°F0.1°C 47% 6.0 mph S9.7 kmh S 11.4 mph18.3 kmh 30.36 in1028.1 mb 0.00 in0.0 mm 0.00 in0.0 mm 0.66 in16.8 mm
08:00 PM 51.1°F10.6°C 32.1°F0.1°C 48% 4.5 mph S7.2 kmh S 9.8 mph15.8 kmh 30.37 in1028.4 mb 0.00 in0.0 mm 0.00 in0.0 mm 0.66 in16.8 mm
08:15 PM 50.4°F10.2°C 31.9°F-0.1°C 49% 3.8 mph S6.1 kmh S 8.3 mph13.4 kmh 30.38 in1028.8 mb 0.00 in0.0 mm 0.00 in0.0 mm 0.66 in16.8 mm
08:30 PM 50.0°F10.0°C 33.1°F0.6°C 52% 3.8 mph S6.1 kmh S 9.2 mph14.8 kmh 30.38 in1028.8 mb 0.00 in0.0 mm 0.00 in0.0 mm 0.66 in16.8 mm
08:45 PM 49.5°F9.7°C 33.5°F0.8°C 54% 6.0 mph S9.7 kmh S 10.7 mph17.2 kmh 30.39 in1029.1 mb 0.00 in0.0 mm 0.00 in0.0 mm 0.66 in16.8 mm
09:00 PM 49.5°F9.7°C 33.1°F0.6°C 53% 4.5 mph SSE7.2 kmh SSE 9.2 mph14.8 kmh 30.40 in1029.5 mb 0.00 in0.0 mm 0.00 in0.0 mm 0.66 in16.8 mm
09:15 PM 49.5°F9.7°C 30.6°F-0.8°C 48% 9.2 mph SSW14.8 kmh SSW 13.0 mph20.9 kmh 30.40 in1029.5 mb 0.00 in0.0 mm 0.00 in0.0 mm 0.66 in16.8 mm
09:30 PM 49.1°F9.5°C 30.3°F-0.9°C 48% 6.9 mph S11.1 kmh S 12.1 mph19.5 kmh 30.41 in1029.8 mb 0.00 in0.0 mm 0.00 in0.0 mm 0.66 in16.8 mm
09:45 PM 48.6°F9.2°C 30.8°F-0.7°C 50% 6.0 mph S9.7 kmh S 9.2 mph14.8 kmh 30.41 in1029.8 mb 0.00 in0.0 mm 0.00 in0.0 mm 0.66 in16.8 mm
10:00 PM 48.0°F8.9°C 30.8°F-0.7°C 51% 5.4 mph S8.7 kmh S 9.2 mph14.8 kmh 30.42 in1030.1 mb 0.00 in0.0 mm 0.00 in0.0 mm 0.66 in16.8 mm
10:15 PM 47.8°F8.8°C 31.1°F-0.5°C 52% 5.4 mph S8.7 kmh S 9.8 mph15.8 kmh 30.42 in1030.1 mb 0.00 in0.0 mm 0.00 in0.0 mm 0.66 in16.8 mm
10:30 PM 47.5°F8.6°C 31.7°F-0.2°C 54% 3.1 mph S5.0 kmh S 10.7 mph17.2 kmh 30.42 in1030.1 mb 0.00 in0.0 mm 0.00 in0.0 mm 0.66 in16.8 mm
10:45 PM 47.1°F8.4°C 30.9°F-0.6°C 53% 5.4 mph S8.7 kmh S 10.7 mph17.2 kmh 30.43 in1030.5 mb 0.00 in0.0 mm 0.00 in0.0 mm 0.66 in16.8 mm
11:00 PM 46.9°F8.3°C 31.6°F-0.2°C 55% 8.3 mph S13.4 kmh S 11.4 mph18.3 kmh 30.43 in1030.5 mb 0.00 in0.0 mm 0.00 in0.0 mm 0.66 in16.8 mm
11:15 PM 46.4°F8.0°C 32.0°F0.0°C 57% 4.5 mph S7.2 kmh S 9.8 mph15.8 kmh 30.42 in1030.1 mb 0.00 in0.0 mm 0.00 in0.0 mm 0.66 in16.8 mm
11:30 PM 46.0°F7.8°C 32.1°F0.1°C 58% 3.8 mph S6.1 kmh S 8.3 mph13.4 kmh 30.42 in1030.1 mb 0.00 in0.0 mm 0.00 in0.0 mm 0.66 in16.8 mm
11:45 PM 45.5°F7.5°C 32.0°F0.0°C 59% 3.1 mph SSW5.0 kmh SSW 8.3 mph13.4 kmh 30.43 in1030.5 mb 0.00 in0.0 mm 0.00 in0.0 mm 0.66 in16.8 mm